Time;durP1;ratioP1;P1;durP2;ratioP2;P2;SDS_P1;SDS_P2;PMS_P1;PMS_P2;Temp;Humidity;BMP_temperature;BMP_pressure;BME280_temperature;BME280_humidity;BME280_pressure;Samples;Min_cycle;Max_cycle;Signal;HPM_P1;HPM_P2
2021/03/25 15:11:00;;;;;;;0.10;0.10;;;;;;;14.55;47.00;101918.72;13033674;22;803081;-90
2021/03/25 15:16:00;;;;;;;0.10;0.10;;;;;;;14.30;49.85;101919.53;12986271;22;20003;-90
2021/03/25 15:21:00;;;;;;;0.10;0.10;;;;;;;14.03;51.24;101913.31;12979443;22;19998;-89
2021/03/25 15:26:06;;;;;;;0.43;0.20;;;;;;;13.82;51.03;101901.09;12970365;22;20266;-89
2021/03/25 15:31:07;;;;;;;0.00;0.00;;;;;;;13.61;50.91;101905.91;13064064;22;20234;-91
2021/03/25 15:36:09;;;;;;;0.10;0.10;;;;;;;13.41;52.53;101910.56;13009987;22;19984;-88
2021/03/25 15:41:14;;;;;;;0.10;0.10;;;;;;;13.13;52.50;101909.72;13010659;22;19991;-90
2021/03/25 15:46:15;;;;;;;0.00;0.00;;;;;;;12.99;53.00;101923.59;13011298;22;19995;-90
2021/03/25 15:51:15;;;;;;;0.00;0.00;;;;;;;12.91;53.42;101909.16;13011744;22;20027;-89
2021/03/25 15:56:16;;;;;;;0.10;0.10;;;;;;;13.01;52.93;101916.28;13062583;22;20002;-89
2021/03/25 16:01:17;;;;;;;0.10;0.10;;;;;;;13.01;52.90;101922.47;13062157;22;19998;-89
2021/03/25 16:07:54;;;;;;;0.10;0.10;;;;;;;12.79;53.49;101929.00;10462696;28;20392;-92
2021/03/25 16:12:55;;;;;;;0.00;0.00;;;;;;;12.72;53.50;101924.41;10416427;28;20088;-93
2021/03/25 16:23:32;;;;;;;0.00;0.00;;;;;;;12.72;54.29;101911.88;11863275;23;20022;-90
2021/03/25 16:28:32;;;;;;;0.00;0.00;;;;;;;12.66;54.85;101912.47;10414149;28;20014;-90
2021/03/25 16:33:33;;;;;;;0.00;0.00;;;;;;;12.59;54.94;101911.34;10413919;28;20301;-91
2021/03/25 16:38:33;;;;;;;0.00;0.00;;;;;;;12.40;56.79;101910.44;10414408;28;20049;-90
2021/03/25 16:43:38;;;;;;;0.00;0.00;;;;;;;12.20;56.44;101928.34;10415287;28;20309;-91
2021/03/25 16:48:39;;;;;;;0.00;0.00;;;;;;;11.93;58.39;101928.22;10404620;28;20196;-89
2021/03/25 16:53:40;;;;;;;0.00;0.00;;;;;;;11.62;58.75;101938.16;10366268;28;20026;-88
2021/03/25 16:58:41;;;;;;;0.00;0.00;;;;;;;11.40;60.13;101939.22;10364609;28;20026;-88
2021/03/25 17:03:41;;;;;;;0.00;0.00;;;;;;;11.27;59.76;101943.00;10363943;28;20038;-89
2021/03/25 17:08:42;;;;;;;0.00;0.00;;;;;;;11.10;59.81;101943.66;10365513;28;20419;-88
2021/03/25 17:13:44;;;;;;;0.00;0.00;;;;;;;11.07;60.36;101952.75;10364042;28;20026;-88
2021/03/25 17:18:44;;;;;;;0.00;0.00;;;;;;;11.00;60.98;101953.44;10339445;28;20056;-88
2021/03/25 17:23:46;;;;;;;0.00;0.00;;;;;;;10.90;62.75;101958.72;10336926;28;20484;-88
2021/03/25 17:28:49;;;;;;;0.00;0.00;;;;;;;10.79;61.94;101957.00;10336475;28;20019;-89
2021/03/25 17:33:52;;;;;;;0.00;0.00;;;;;;;10.69;62.79;101947.28;10338201;28;20444;-89
2021/03/25 17:38:52;;;;;;;0.00;0.00;;;;;;;10.52;63.09;101938.06;10335862;28;20022;-88
2021/03/25 17:43:52;;;;;;;0.00;0.00;;;;;;;10.40;63.34;101943.44;10335830;28;20022;-88
2021/03/25 17:48:53;;;;;;;0.00;0.00;;;;;;;10.33;63.79;101944.97;10335373;28;20686;-88
2021/03/25 17:53:53;;;;;;;0.00;0.00;;;;;;;10.22;64.10;101947.66;10336916;28;20073;-88
2021/03/25 17:58:55;;;;;;;0.00;0.00;;;;;;;10.15;63.98;101935.81;10336417;28;20085;-88
2021/03/25 18:03:55;;;;;;;0.00;0.00;;;;;;;10.12;64.67;101947.59;10338823;28;20039;-87
2021/03/25 18:08:55;;;;;;;0.00;0.00;;;;;;;10.07;64.80;101956.94;10337536;28;20180;-88
2021/03/25 18:13:56;;;;;;;0.00;0.00;;;;;;;10.04;64.76;101962.53;10338573;28;20022;-88
2021/03/25 18:19:01;;;;;;;0.08;0.08;;;;;;;9.95;65.27;101964.13;10339997;28;20369;-87
2021/03/25 18:24:02;;;;;;;0.08;0.08;;;;;;;9.86;65.05;101967.53;10323077;28;20042;-88
2021/03/25 18:29:09;;;;;;;0.00;0.00;;;;;;;9.85;65.96;101974.66;10337864;28;20026;-88
2021/03/25 18:34:10;;;;;;;0.03;0.03;;;;;;;9.79;66.08;101980.50;10341291;28;20395;-88
2021/03/25 18:44:24;;;;;;;0.00;0.00;;;;;;;9.57;67.00;101959.28;10374238;28;20042;-91
2021/03/25 18:49:26;;;;;;;0.08;0.08;;;;;;;9.48;67.45;101959.06;10375293;28;20102;-93
2021/03/25 18:54:27;;;;;;;0.00;0.00;;;;;;;9.48;68.27;101964.41;10378707;28;20038;-92
2021/03/25 19:04:37;;;;;;;0.00;0.00;;;;;;;9.52;67.35;101959.66;10537654;22;20461;-93
2021/03/25 19:09:39;;;;;;;0.10;0.10;;;;;;;9.48;67.79;101959.06;10456371;23;20099;-93
2021/03/25 19:19:55;;;;;;;0.10;0.10;;;;;;;9.50;69.75;101970.41;10416046;28;20050;-92
2021/03/25 19:30:09;;;;;;;0.08;0.08;;;;;;;9.44;69.71;101981.53;10743343;22;20075;-93
2021/03/25 19:35:13;;;;;;;0.10;0.10;;;;;;;9.49;70.31;101987.34;10441076;28;20092;-93
2021/03/25 19:40:15;;;;;;;0.00;0.00;;;;;;;9.45;71.11;101982.38;10444457;28;20025;-91
2021/03/25 19:55:57;;;;;;;0.00;0.00;;;;;;;9.44;70.79;101989.53;2456243;23;20060;-91
2021/03/25 20:00:57;;;;;;;0.00;0.00;;;;;;;9.38;70.84;101989.19;10276355;28;20050;-89
2021/03/25 20:06:10;;;;;;;0.00;0.00;;;;;;;9.28;70.77;101983.75;10406399;23;20126;-90
2021/03/25 20:11:46;;;;;;;0.10;0.10;;;;;;;9.27;70.89;101992.69;10413271;23;20031;-89
2021/03/25 20:21:57;;;;;;;0.00;0.00;;;;;;;8.98;72.16;101971.91;11124295;22;20046;-89
2021/03/25 20:26:58;;;;;;;0.10;0.10;;;;;;;8.89;72.23;101974.47;10420144;28;20105;-91
2021/03/25 20:31:59;;;;;;;0.00;0.00;;;;;;;8.75;73.04;101994.13;10420188;28;20034;-92
2021/03/25 20:36:59;;;;;;;0.10;0.10;;;;;;;8.52;74.21;101966.66;10419996;28;20034;-90
2021/03/25 20:41:59;;;;;;;0.10;0.10;;;;;;;8.43;73.84;101986.81;10418960;28;20086;-93
2021/03/25 20:47:00;;;;;;;0.10;0.10;;;;;;;8.37;75.33;101987.25;10419446;28;20352;-92
2021/03/25 20:52:00;;;;;;;0.00;0.00;;;;;;;8.29;75.50;101982.53;10497437;23;20176;-91
2021/03/25 20:57:04;;;;;;;0.10;0.10;;;;;;;8.38;75.87;101988.97;10454430;23;20105;-91
2021/03/25 21:02:05;;;;;;;0.00;0.00;;;;;;;8.29;76.21;101987.84;10409960;28;20046;-91
2021/03/25 21:07:06;;;;;;;0.13;0.13;;;;;;;8.18;76.10;101987.81;10408254;28;20038;-91
2021/03/25 21:12:06;;;;;;;0.03;0.03;;;;;;;8.06;76.74;101981.59;10410584;28;20025;-91
2021/03/25 21:17:08;;;;;;;0.03;0.03;;;;;;;7.99;77.23;101996.28;10476243;23;20110;-91
2021/03/25 21:22:09;;;;;;;0.10;0.10;;;;;;;8.05;77.91;102009.09;10383472;28;20058;-92
2021/03/25 21:27:09;;;;;;;0.10;0.10;;;;;;;8.09;78.46;102015.88;10380211;28;20029;-92
2021/03/25 21:32:10;;;;;;;0.13;0.13;;;;;;;8.13;78.56;102012.03;10378392;28;20041;-92
2021/03/25 21:37:13;;;;;;;0.03;0.03;;;;;;;8.12;78.84;102006.84;10376214;28;20057;-93
2021/03/25 21:42:14;;;;;;;0.00;0.00;;;;;;;8.11;78.66;101999.81;10383059;28;20018;-92
2021/03/25 21:57:55;;;;;;;0.10;0.10;;;;;;;8.16;77.85;102014.44;2475954;23;20073;-92
2021/03/25 22:02:56;;;;;;;0.00;0.00;;;;;;;7.92;78.82;102008.31;10363623;28;20061;-92
2021/03/25 22:07:56;;;;;;;0.00;0.00;;;;;;;7.78;79.60;102000.53;10380688;28;20046;-92
2021/03/25 22:12:57;;;;;;;0.10;0.10;;;;;;;7.78;79.78;102003.16;10377722;28;20465;-92
2021/03/25 22:17:58;;;;;;;0.10;0.10;;;;;;;7.74;80.93;102007.88;10379689;28;20038;-92
2021/03/25 22:22:58;;;;;;;0.10;0.10;;;;;;;7.85;81.39;102012.38;10381479;28;20285;-91
2021/03/25 22:27:58;;;;;;;0.10;0.10;;;;;;;7.83;81.27;102003.69;10350208;28;20043;-92
2021/03/25 22:32:59;;;;;;;0.10;0.10;;;;;;;7.91;80.96;102011.91;10336553;28;20310;-92
2021/03/25 22:38:01;;;;;;;0.10;0.10;;;;;;;7.77;80.97;102005.00;10337151;28;20042;-92
2021/03/25 22:43:02;;;;;;;0.00;0.00;;;;;;;7.61;80.96;102002.59;10337564;28;20039;-91
2021/03/25 22:48:04;;;;;;;0.25;0.25;;;;;;;7.44;81.70;102003.78;10339909;28;20042;-90
2021/03/25 22:53:12;;;;;;;0.10;0.10;;;;;;;7.31;82.10;102012.75;10339969;28;20043;-91
2021/03/25 22:58:17;;;;;;;0.10;0.10;;;;;;;7.16;83.13;102009.38;10337970;28;20102;-91
2021/03/25 23:03:21;;;;;;;0.00;0.00;;;;;;;7.05;84.19;102017.22;10339332;28;20023;-91
2021/03/25 23:08:22;;;;;;;0.10;0.10;;;;;;;6.99;84.77;102024.66;10338814;28;20583;-91
2021/03/25 23:13:22;;;;;;;0.10;0.10;;;;;;;6.90;85.87;102016.50;10340900;28;20047;-90
2021/03/25 23:18:23;;;;;;;0.00;0.00;;;;;;;6.78;86.78;102010.25;10339558;28;20039;-92
2021/03/25 23:23:28;;;;;;;0.10;0.10;;;;;;;6.62;86.68;102005.13;10335564;28;20066;-91
2021/03/25 23:28:50;;;;;;;0.20;0.20;;;;;;;6.48;86.99;102002.59;10337081;28;20221;-91
2021/03/25 23:33:50;;;;;;;0.00;0.00;;;;;;;6.35;88.42;102007.88;10337906;28;20050;-91
2021/03/25 23:38:51;;;;;;;0.17;0.17;;;;;;;6.25;89.44;101999.69;10333935;28;20058;-91
2021/03/25 23:43:51;;;;;;;0.13;0.13;;;;;;;6.25;88.80;102018.19;10335823;28;20063;-90
2021/03/25 23:48:52;;;;;;;0.10;0.10;;;;;;;6.23;89.54;102025.41;10336760;28;20069;-93
2021/03/25 23:53:52;;;;;;;0.10;0.10;;;;;;;6.12;89.38;102028.75;10334785;28;20042;-93
2021/03/25 23:58:54;;;;;;;0.20;0.20;;;;;;;5.89;89.04;102017.00;10333462;28;20170;-92
